Time;durP1;ratioP1;P1;durP2;ratioP2;P2;SDS_P1;SDS_P2;PMS_P1;PMS_P2;Temp;Humidity;BMP_temperature;BMP_pressure;BME280_temperature;BME280_humidity;BME280_pressure;Samples;Min_cycle;Max_cycle;Signal;HPM_P1;HPM_P2
2021/08/16 00:01:30;;;;;;;9.20;2.80;;;;;;;;;;5052911;28;20067;-75
2021/08/16 00:03:55;;;;;;;3.75;2.20;;;;;;;;;;5052959;28;20037;-75
2021/08/16 00:06:20;;;;;;;5.30;2.47;;;;;;;;;;5052507;28;20025;-75
2021/08/16 00:08:46;;;;;;;6.93;2.40;;;;;;;;;;5052516;28;20025;-75
2021/08/16 00:11:11;;;;;;;8.20;3.00;;;;;;;;;;5052360;28;20083;-75
2021/08/16 00:13:37;;;;;;;6.43;2.53;;;;;;;;;;5052889;28;20025;-75
2021/08/16 00:16:02;;;;;;;4.95;2.42;;;;;;;;;;5052577;28;20087;-75
2021/08/16 00:18:29;;;;;;;7.35;3.25;;;;;;;;;;5052834;28;20521;-75
2021/08/16 00:20:55;;;;;;;7.63;3.53;;;;;;;;;;5053013;28;20055;-75
2021/08/16 00:23:20;;;;;;;7.50;3.00;;;;;;;;;;5052635;28;20033;-74
2021/08/16 00:25:45;;;;;;;6.70;2.97;;;;;;;;;;5052778;28;20483;-75
2021/08/16 00:28:11;;;;;;;11.82;3.30;;;;;;;;;;5052865;28;20424;-74
2021/08/16 00:30:36;;;;;;;6.28;3.10;;;;;;;;;;5056268;28;20095;-75
2021/08/16 00:33:02;;;;;;;8.40;3.17;;;;;;;;;;5055288;28;20021;-75
2021/08/16 00:35:27;;;;;;;9.25;3.75;;;;;;;;;;5055651;28;20374;-75
2021/08/16 00:37:52;;;;;;;6.70;3.25;;;;;;;;;;5056167;28;20472;-75
2021/08/16 00:40:18;;;;;;;8.32;3.90;;;;;;;;;;5055948;28;20044;-76
2021/08/16 00:42:44;;;;;;;13.40;4.30;;;;;;;;;;5056116;28;20028;-73
2021/08/16 00:45:12;;;;;;;11.38;4.75;;;;;;;;;;5055836;28;20535;-75
2021/08/16 00:47:39;;;;;;;10.50;4.53;;;;;;;;;;5055929;28;20134;-76
2021/08/16 00:50:05;;;;;;;12.82;4.40;;;;;;;;;;5055760;28;20024;-75
2021/08/16 00:52:30;;;;;;;9.85;4.80;;;;;;;;;;5055420;28;20060;-75
2021/08/16 00:54:59;;;;;;;12.95;4.60;;;;;;;;;;5055268;28;20114;-75
2021/08/16 00:57:31;;;;;;;11.02;4.80;;;;;;;;;;5055800;28;20025;-75
2021/08/16 00:59:58;;;;;;;19.30;6.18;;;;;;;;;;5055237;28;20029;-75
2021/08/16 01:02:23;;;;;;;19.35;5.47;;;;;;;;;;5055273;28;20032;-75
2021/08/16 01:04:48;;;;;;;14.43;5.90;;;;;;;;;;5055140;28;20096;-75
2021/08/16 01:07:13;;;;;;;13.35;5.97;;;;;;;;;;5055131;28;20029;-75
2021/08/16 01:09:39;;;;;;;14.65;5.35;;;;;;;;;;5055235;28;20472;-75
2021/08/16 01:12:05;;;;;;;11.30;5.38;;;;;;;;;;5055651;28;20102;-75
2021/08/16 01:14:30;;;;;;;14.75;5.68;;;;;;;;;;5037053;28;20075;-75
2021/08/16 01:16:57;;;;;;;18.55;6.32;;;;;;;;;;5055115;28;20385;-75
2021/08/16 01:19:22;;;;;;;17.30;6.05;;;;;;;;;;5054051;28;20013;-75
2021/08/16 01:21:48;;;;;;;13.15;6.22;;;;;;;;;;5055177;28;20055;-76
2021/08/16 01:24:14;;;;;;;14.60;5.82;;;;;;;;;;5054695;28;20480;-75
2021/08/16 01:26:39;;;;;;;13.90;6.55;;;;;;;;;;5055211;28;20107;-75
2021/08/16 01:29:14;;;;;;;24.58;6.50;;;;;;;;;;5054881;28;20029;-75
2021/08/16 01:31:39;;;;;;;14.25;5.45;;;;;;;;;;5035221;28;20057;-75
2021/08/16 01:34:04;;;;;;;15.73;6.50;;;;;;;;;;5051308;28;20032;-74
2021/08/16 01:36:29;;;;;;;18.90;6.80;;;;;;;;;;5054831;28;20092;-75
2021/08/16 01:38:55;;;;;;;19.23;6.63;;;;;;;;;;5052065;28;20519;-76
2021/08/16 01:41:20;;;;;;;13.65;5.85;;;;;;;;;;5052949;28;20025;-76
2021/08/16 01:43:45;;;;;;;20.05;6.30;;;;;;;;;;5054517;28;20539;-75
2021/08/16 01:46:11;;;;;;;17.08;8.02;;;;;;;;;;5053191;28;20035;-75
2021/08/16 01:48:36;;;;;;;18.85;7.10;;;;;;;;;;5034591;28;20540;-75
2021/08/16 01:51:01;;;;;;;16.70;6.72;;;;;;;;;;5045934;28;20040;-75
2021/08/16 01:53:27;;;;;;;20.25;7.00;;;;;;;;;;5053806;28;20059;-75
2021/08/16 01:55:52;;;;;;;15.65;6.95;;;;;;;;;;5054420;28;20029;-75
2021/08/16 01:58:17;;;;;;;27.08;7.43;;;;;;;;;;5053854;28;20035;-76
2021/08/16 02:00:43;;;;;;;22.30;7.32;;;;;;;;;;5053487;28;20074;-75
2021/08/16 02:03:08;;;;;;;21.38;6.93;;;;;;;;;;5053685;28;20033;-75
2021/08/16 02:05:33;;;;;;;20.25;7.38;;;;;;;;;;5053744;28;20079;-75
2021/08/16 02:07:59;;;;;;;18.95;7.80;;;;;;;;;;5054094;28;20462;-76
2021/08/16 02:10:24;;;;;;;19.52;9.05;;;;;;;;;;5053747;28;20086;-75
2021/08/16 02:12:50;;;;;;;24.13;9.60;;;;;;;;;;5036000;28;20440;-76
2021/08/16 02:15:15;;;;;;;26.35;11.15;;;;;;;;;;5053829;28;20029;-74
2021/08/16 02:17:40;;;;;;;22.55;8.43;;;;;;;;;;5053291;28;20029;-75
2021/08/16 02:20:06;;;;;;;37.92;10.55;;;;;;;;;;5053638;28;20600;-75
2021/08/16 02:22:31;;;;;;;24.48;8.27;;;;;;;;;;5053635;28;20024;-75
2021/08/16 02:24:56;;;;;;;23.27;7.50;;;;;;;;;;5053403;28;20028;-76
2021/08/16 02:27:22;;;;;;;25.58;8.05;;;;;;;;;;5053372;28;20428;-76
2021/08/16 02:29:47;;;;;;;22.83;7.95;;;;;;;;;;5054077;28;20063;-75
2021/08/16 02:32:13;;;;;;;27.60;8.13;;;;;;;;;;5052949;28;20084;-75
2021/08/16 02:34:38;;;;;;;23.88;7.85;;;;;;;;;;5053581;28;20102;-75
2021/08/16 02:37:03;;;;;;;22.13;8.23;;;;;;;;;;5053814;28;20029;-75
2021/08/16 02:39:29;;;;;;;23.05;8.25;;;;;;;;;;5053192;28;20048;-75
2021/08/16 02:41:54;;;;;;;23.67;8.50;;;;;;;;;;5053329;28;20025;-75
2021/08/16 02:44:19;;;;;;;21.83;7.80;;;;;;;;;;5053610;28;20020;-76
2021/08/16 02:46:44;;;;;;;31.52;8.45;;;;;;;;;;5053096;28;20397;-76
2021/08/16 02:49:10;;;;;;;27.50;8.50;;;;;;;;;;5053632;28;20076;-75
2021/08/16 02:51:35;;;;;;;31.58;8.95;;;;;;;;;;5052999;28;20381;-75
2021/08/16 02:54:00;;;;;;;31.75;8.77;;;;;;;;;;5053855;28;20020;-76
2021/08/16 02:56:26;;;;;;;34.50;8.23;;;;;;;;;;5053115;28;20105;-75
2021/08/16 02:58:51;;;;;;;26.40;8.10;;;;;;;;;;5053251;28;20020;-76
2021/08/16 03:01:16;;;;;;;24.20;8.43;;;;;;;;;;5053015;28;20067;-74
2021/08/16 03:03:41;;;;;;;19.25;8.32;;;;;;;;;;5052745;28;20603;-76
2021/08/16 03:06:07;;;;;;;31.50;9.18;;;;;;;;;;5053345;28;20025;-75
2021/08/16 03:08:34;;;;;;;26.02;8.77;;;;;;;;;;5052686;28;20036;-76
2021/08/16 03:10:59;;;;;;;24.17;8.10;;;;;;;;;;5053242;28;20056;-75
2021/08/16 03:13:24;;;;;;;34.42;9.40;;;;;;;;;;5052790;28;20434;-75
2021/08/16 03:15:50;;;;;;;23.15;8.50;;;;;;;;;;5052898;28;20029;-75
2021/08/16 03:18:15;;;;;;;25.75;9.45;;;;;;;;;;5052439;28;20450;-75
2021/08/16 03:20:40;;;;;;;27.77;8.63;;;;;;;;;;5053120;28;20028;-75
2021/08/16 03:23:05;;;;;;;34.28;9.77;;;;;;;;;;5053220;28;20472;-75
2021/08/16 03:25:31;;;;;;;38.30;10.68;;;;;;;;;;5053283;28;20465;-75
2021/08/16 03:27:56;;;;;;;28.38;8.90;;;;;;;;;;5052556;28;20036;-75
2021/08/16 03:30:21;;;;;;;27.52;9.95;;;;;;;;;;5052429;28;20072;-75
2021/08/16 03:32:48;;;;;;;37.50;10.68;;;;;;;;;;5052929;28;20436;-77
2021/08/16 03:35:14;;;;;;;32.47;9.63;;;;;;;;;;5051912;28;20050;-75
2021/08/16 03:37:40;;;;;;;26.15;9.75;;;;;;;;;;5052044;28;20112;-75
2021/08/16 03:40:06;;;;;;;29.80;10.05;;;;;;;;;;5052155;28;20493;-75
2021/08/16 03:42:31;;;;;;;45.63;12.80;;;;;;;;;;5052165;28;20029;-75
2021/08/16 03:44:56;;;;;;;38.95;12.32;;;;;;;;;;5052826;28;20028;-75
2021/08/16 03:47:22;;;;;;;43.13;12.23;;;;;;;;;;5051297;28;20029;-75
2021/08/16 03:49:47;;;;;;;38.13;13.82;;;;;;;;;;5033147;28;20029;-75
2021/08/16 03:52:12;;;;;;;43.22;14.27;;;;;;;;;;5044157;28;20044;-75
2021/08/16 03:54:38;;;;;;;47.78;15.32;;;;;;;;;;5053033;28;20039;-75
2021/08/16 03:57:03;;;;;;;37.65;15.77;;;;;;;;;;5052066;28;20028;-75
2021/08/16 03:59:28;;;;;;;46.17;15.68;;;;;;;;;;5052657;28;20469;-75
2021/08/16 04:01:54;;;;;;;39.22;13.80;;;;;;;;;;5034786;28;20117;-76
2021/08/16 04:04:19;;;;;;;40.10;15.32;;;;;;;;;;5036543;28;20457;-75
2021/08/16 04:06:44;;;;;;;51.45;16.25;;;;;;;;;;5056439;28;20446;-75
2021/08/16 04:09:11;;;;;;;40.15;14.98;;;;;;;;;;5056372;28;20033;-75
2021/08/16 04:11:36;;;;;;;39.90;14.88;;;;;;;;;;5056376;28;20099;-75
2021/08/16 04:14:02;;;;;;;40.13;14.15;;;;;;;;;;5056130;28;20488;-75
2021/08/16 04:16:27;;;;;;;59.67;15.18;;;;;;;;;;5055386;28;20029;-75
2021/08/16 04:18:52;;;;;;;46.22;16.27;;;;;;;;;;5056416;28;20067;-75
2021/08/16 04:21:17;;;;;;;45.22;15.38;;;;;;;;;;5056458;28;20068;-75
2021/08/16 04:23:43;;;;;;;56.70;16.17;;;;;;;;;;5055725;28;20043;-76
2021/08/16 04:26:08;;;;;;;51.08;16.27;;;;;;;;;;5056423;28;20468;-76
2021/08/16 04:28:33;;;;;;;45.58;15.93;;;;;;;;;;5056102;28;20032;-76
2021/08/16 04:30:58;;;;;;;61.42;16.15;;;;;;;;;;5055771;28;20067;-75
2021/08/16 04:33:24;;;;;;;46.47;13.77;;;;;;;;;;5056003;28;20025;-75
2021/08/16 04:35:50;;;;;;;42.75;14.90;;;;;;;;;;5055807;28;20466;-75
2021/08/16 04:38:19;;;;;;;41.15;13.38;;;;;;;;;;5046767;28;20045;-76
2021/08/16 04:40:48;;;;;;;46.67;14.98;;;;;;;;;;5055555;28;20039;-75
2021/08/16 04:43:13;;;;;;;45.90;14.65;;;;;;;;;;5055621;28;20029;-75
2021/08/16 04:45:38;;;;;;;52.92;16.20;;;;;;;;;;5055772;28;20059;-75
2021/08/16 04:48:04;;;;;;;43.40;13.25;;;;;;;;;;5055459;28;20029;-74
2021/08/16 04:50:29;;;;;;;36.58;13.68;;;;;;;;;;5055785;28;20020;-75
2021/08/16 04:52:54;;;;;;;40.05;12.95;;;;;;;;;;5056000;28;20029;-75
2021/08/16 04:55:20;;;;;;;36.28;11.98;;;;;;;;;;5055561;28;20021;-75
2021/08/16 04:57:45;;;;;;;36.33;12.85;;;;;;;;;;5055586;28;20032;-75
2021/08/16 05:00:12;;;;;;;48.70;13.48;;;;;;;;;;5055224;28;20029;-76
2021/08/16 05:02:37;;;;;;;61.47;15.95;;;;;;;;;;5054585;28;20017;-75
2021/08/16 05:05:10;;;;;;;43.00;12.75;;;;;;;;;;5055285;28;20033;-75
2021/08/16 05:07:36;;;;;;;49.22;14.68;;;;;;;;;;5055114;28;20029;-75
2021/08/16 05:10:01;;;;;;;40.03;12.52;;;;;;;;;;5055000;28;20036;-76
2021/08/16 05:12:26;;;;;;;53.60;13.60;;;;;;;;;;5055268;28;20029;-76
2021/08/16 05:14:52;;;;;;;56.22;14.77;;;;;;;;;;5055188;28;20033;-75
2021/08/16 05:17:18;;;;;;;53.42;15.52;;;;;;;;;;5054603;28;20114;-75
2021/08/16 05:19:43;;;;;;;46.80;14.43;;;;;;;;;;5054853;28;20033;-75
2021/08/16 05:22:09;;;;;;;50.28;13.88;;;;;;;;;;5054997;28;20048;-75
2021/08/16 05:24:35;;;;;;;45.28;12.82;;;;;;;;;;5054579;28;20032;-76
2021/08/16 05:27:01;;;;;;;47.00;13.02;;;;;;;;;;5054701;28;20017;-77
2021/08/16 05:29:26;;;;;;;65.15;17.35;;;;;;;;;;5054937;28;20024;-75
2021/08/16 05:31:51;;;;;;;58.85;15.75;;;;;;;;;;5055326;28;20103;-75
2021/08/16 05:34:16;;;;;;;81.13;18.05;;;;;;;;;;5055053;28;20060;-76
2021/08/16 05:36:42;;;;;;;79.45;19.50;;;;;;;;;;5054171;28;20086;-76
2021/08/16 05:39:07;;;;;;;82.03;19.52;;;;;;;;;;5054679;28;20096;-75
2021/08/16 05:41:32;;;;;;;69.13;16.10;;;;;;;;;;5054849;28;20037;-76
2021/08/16 05:43:57;;;;;;;65.55;16.65;;;;;;;;;;5054624;28;20572;-75
2021/08/16 05:46:23;;;;;;;56.42;16.95;;;;;;;;;;5054894;28;20026;-75
2021/08/16 05:48:48;;;;;;;65.05;17.77;;;;;;;;;;5054590;28;20060;-75
2021/08/16 05:51:13;;;;;;;76.28;22.90;;;;;;;;;;5054118;28;20112;-75
2021/08/16 05:53:39;;;;;;;69.90;17.73;;;;;;;;;;5054134;28;20032;-75
2021/08/16 05:56:04;;;;;;;66.28;18.38;;;;;;;;;;5054550;28;20028;-75
2021/08/16 05:58:29;;;;;;;71.80;17.23;;;;;;;;;;5054145;28;20037;-75
2021/08/16 06:00:54;;;;;;;57.20;15.05;;;;;;;;;;5053939;28;20400;-75
2021/08/16 06:03:21;;;;;;;50.75;14.65;;;;;;;;;;5053905;28;20033;-77
2021/08/16 06:05:47;;;;;;;55.55;14.32;;;;;;;;;;5054113;28;20121;-76
2021/08/16 06:08:12;;;;;;;54.05;13.88;;;;;;;;;;5054027;28;20060;-75
2021/08/16 06:10:37;;;;;;;50.72;13.50;;;;;;;;;;5054098;28;20037;-75
2021/08/16 06:13:03;;;;;;;70.13;17.60;;;;;;;;;;5054043;28;20021;-76
2021/08/16 06:15:28;;;;;;;60.38;17.15;;;;;;;;;;5053899;28;20386;-76
2021/08/16 06:17:53;;;;;;;50.50;15.63;;;;;;;;;;5053775;28;20075;-75
2021/08/16 06:20:19;;;;;;;70.88;18.92;;;;;;;;;;5053035;28;20076;-75
2021/08/16 06:22:45;;;;;;;64.07;23.45;;;;;;;;;;5053665;28;20021;-75
2021/08/16 06:25:10;;;;;;;60.47;20.45;;;;;;;;;;5054027;28;20074;-76
2021/08/16 06:27:35;;;;;;;45.35;16.27;;;;;;;;;;5053270;28;20029;-76
2021/08/16 06:30:01;;;;;;;44.80;16.17;;;;;;;;;;5054145;28;20413;-75
2021/08/16 06:32:26;;;;;;;39.92;19.23;;;;;;;;;;5053891;28;20052;-76
2021/08/16 06:34:51;;;;;;;34.83;19.48;;;;;;;;;;5053735;28;20421;-75
2021/08/16 06:37:16;;;;;;;37.88;21.73;;;;;;;;;;5053547;28;20035;-76
2021/08/16 06:39:42;;;;;;;36.60;21.30;;;;;;;;;;5053643;28;20036;-75
2021/08/16 06:42:08;;;;;;;32.05;20.63;;;;;;;;;;5053460;28;20041;-76
2021/08/16 06:44:33;;;;;;;38.20;22.25;;;;;;;;;;5053597;28;20081;-76
2021/08/16 06:46:59;;;;;;;42.20;23.95;;;;;;;;;;5054164;28;20037;-75
2021/08/16 06:49:25;;;;;;;36.13;21.70;;;;;;;;;;5053115;28;20040;-76
2021/08/16 06:51:50;;;;;;;33.33;21.52;;;;;;;;;;5053386;28;20532;-76
2021/08/16 06:54:15;;;;;;;32.95;21.25;;;;;;;;;;5052674;28;20465;-76
2021/08/16 06:56:41;;;;;;;32.80;21.35;;;;;;;;;;5053248;28;20033;-75
2021/08/16 06:59:06;;;;;;;36.53;20.98;;;;;;;;;;5053506;28;20032;-76
2021/08/16 07:01:31;;;;;;;40.08;20.42;;;;;;;;;;5053077;28;20037;-76
2021/08/16 07:03:57;;;;;;;27.58;20.83;;;;;;;;;;5053200;28;20201;-76
2021/08/16 07:06:23;;;;;;;30.08;19.02;;;;;;;;;;5053391;28;20021;-76
2021/08/16 07:08:49;;;;;;;32.75;19.63;;;;;;;;;;5052674;28;20040;-76
2021/08/16 07:11:14;;;;;;;28.85;19.98;;;;;;;;;;5053332;28;20389;-76
2021/08/16 07:13:40;;;;;;;31.23;19.70;;;;;;;;;;5053024;28;20381;-76
2021/08/16 07:16:05;;;;;;;33.28;18.70;;;;;;;;;;5052790;28;20025;-76
2021/08/16 07:18:36;;;;;;;32.28;19.95;;;;;;;;;;5053186;28;20025;-77
2021/08/16 07:21:05;;;;;;;29.52;19.65;;;;;;;;;;5053124;28;20055;-75
2021/08/16 07:23:30;;;;;;;32.53;19.25;;;;;;;;;;5052979;28;20078;-79
2021/08/16 07:25:59;;;;;;;30.00;18.80;;;;;;;;;;5052774;28;20032;-76
2021/08/16 07:28:28;;;;;;;32.35;19.75;;;;;;;;;;5053221;28;20017;-76
2021/08/16 07:30:54;;;;;;;26.98;18.58;;;;;;;;;;5052831;28;20055;-76
2021/08/16 07:33:19;;;;;;;25.75;17.25;;;;;;;;;;5053072;28;20055;-76
2021/08/16 07:35:44;;;;;;;25.05;17.98;;;;;;;;;;5053223;28;20053;-76
2021/08/16 07:38:10;;;;;;;32.72;19.92;;;;;;;;;;5053111;28;20028;-76
2021/08/16 07:40:35;;;;;;;32.92;21.35;;;;;;;;;;5056663;28;20036;-75
2021/08/16 07:43:00;;;;;;;30.30;20.63;;;;;;;;;;5056891;28;20450;-78
2021/08/16 07:45:25;;;;;;;32.35;19.98;;;;;;;;;;5056555;28;20025;-75
2021/08/16 07:47:52;;;;;;;32.25;20.33;;;;;;;;;;5056345;28;20033;-76
2021/08/16 07:50:17;;;;;;;34.88;20.38;;;;;;;;;;5039101;28;20021;-76
2021/08/16 07:52:44;;;;;;;32.15;19.33;;;;;;;;;;5056822;28;20480;-76
2021/08/16 07:55:09;;;;;;;30.20;19.10;;;;;;;;;;5056674;28;20384;-76
2021/08/16 07:57:35;;;;;;;32.92;19.60;;;;;;;;;;5056959;28;20025;-76
2021/08/16 08:00:01;;;;;;;31.25;20.88;;;;;;;;;;5056308;28;20033;-75
2021/08/16 08:02:37;;;;;;;34.60;20.73;;;;;;;;;;5056028;28;20499;-76
2021/08/16 08:05:03;;;;;;;37.50;21.85;;;;;;;;;;5049725;28;20440;-76
2021/08/16 08:07:29;;;;;;;29.27;19.77;;;;;;;;;;5056084;28;20060;-75
2021/08/16 08:09:54;;;;;;;30.08;19.13;;;;;;;;;;5056101;28;20057;-76
2021/08/16 08:12:19;;;;;;;30.92;18.85;;;;;;;;;;5056070;28;20020;-76
2021/08/16 08:14:45;;;;;;;26.95;18.23;;;;;;;;;;5055775;28;20020;-75
2021/08/16 08:17:10;;;;;;;29.60;16.83;;;;;;;;;;5055719;28;20017;-75
2021/08/16 08:19:35;;;;;;;32.55;17.95;;;;;;;;;;5056256;28;20033;-75
2021/08/16 08:22:00;;;;;;;26.50;18.25;;;;;;;;;;5055891;28;20463;-75
2021/08/16 08:24:26;;;;;;;33.47;17.88;;;;;;;;;;5055231;28;20103;-75
2021/08/16 08:26:51;;;;;;;25.17;16.95;;;;;;;;;;5055437;28;20029;-74
2021/08/16 08:29:16;;;;;;;24.73;15.80;;;;;;;;;;5055439;28;20087;-75
2021/08/16 08:31:41;;;;;;;38.58;17.15;;;;;;;;;;5053873;28;20053;-74
2021/08/16 08:34:07;;;;;;;25.30;16.75;;;;;;;;;;5054452;28;20063;-74
2021/08/16 08:36:32;;;;;;;24.30;14.57;;;;;;;;;;5036541;28;20101;-75
2021/08/16 08:38:58;;;;;;;21.27;13.75;;;;;;;;;;5051590;28;20472;-78
2021/08/16 08:41:24;;;;;;;20.65;12.40;;;;;;;;;;5051615;28;20076;-75
2021/08/16 08:43:49;;;;;;;23.83;13.45;;;;;;;;;;5054344;28;20526;-75
2021/08/16 08:46:17;;;;;;;22.73;11.60;;;;;;;;;;5054038;28;20017;-75
2021/08/16 08:48:42;;;;;;;15.98;11.65;;;;;;;;;;5052966;28;20025;-75
2021/08/16 08:51:08;;;;;;;17.10;10.27;;;;;;;;;;5052387;28;20024;-75
2021/08/16 08:53:33;;;;;;;19.40;10.73;;;;;;;;;;5052484;28;20025;-76
2021/08/16 08:55:58;;;;;;;16.42;9.57;;;;;;;;;;5053090;28;20112;-75
2021/08/16 08:58:23;;;;;;;17.15;10.32;;;;;;;;;;5053708;28;20046;-75
2021/08/16 09:00:49;;;;;;;17.20;10.25;;;;;;;;;;5053139;28;20096;-74
2021/08/16 09:03:14;;;;;;;16.52;10.02;;;;;;;;;;5053650;28;20091;-74
2021/08/16 09:05:47;;;;;;;16.08;9.38;;;;;;;;;;5054262;28;20543;-74
2021/08/16 09:08:26;;;;;;;17.17;10.52;;;;;;;;;;5054508;28;20096;-74
2021/08/16 09:10:52;;;;;;;18.90;9.05;;;;;;;;;;5054169;28;20029;-74
2021/08/16 09:13:24;;;;;;;16.67;9.48;;;;;;;;;;5053870;28;20362;-74
2021/08/16 09:15:50;;;;;;;14.57;9.27;;;;;;;;;;5054126;28;20032;-75
2021/08/16 09:18:26;;;;;;;16.65;8.32;;;;;;;;;;5054081;28;20025;-75
2021/08/16 09:20:52;;;;;;;15.43;7.43;;;;;;;;;;5053372;28;20098;-74
2021/08/16 09:23:17;;;;;;;13.82;7.60;;;;;;;;;;5053677;28;20416;-74
2021/08/16 09:25:52;;;;;;;15.75;7.68;;;;;;;;;;5053439;28;20420;-74
2021/08/16 09:28:25;;;;;;;13.07;8.07;;;;;;;;;;5053524;28;20013;-75
2021/08/16 09:30:50;;;;;;;14.48;6.85;;;;;;;;;;5011934;28;1206321;-75
2021/08/16 09:33:17;;;;;;;15.45;6.90;;;;;;;;;;5054446;28;20029;-75
2021/08/16 09:35:56;;;;;;;17.75;5.80;;;;;;;;;;5054466;28;20025;-75
2021/08/16 09:38:41;;;;;;;12.93;5.75;;;;;;;;;;5054665;28;20021;-75
2021/08/16 09:41:17;;;;;;;12.13;5.40;;;;;;;;;;5054604;28;20120;-76
2021/08/16 09:43:43;;;;;;;17.55;6.40;;;;;;;;;;5054495;28;20068;-74
2021/08/16 09:46:12;;;;;;;15.23;5.72;;;;;;;;;;5047771;28;20063;-75
2021/08/16 09:48:37;;;;;;;14.30;5.85;;;;;;;;;;5043511;28;20028;-74
2021/08/16 09:51:02;;;;;;;13.82;6.13;;;;;;;;;;5053419;28;20385;-76
2021/08/16 09:53:28;;;;;;;13.55;5.75;;;;;;;;;;5053390;28;20397;-74
2021/08/16 09:55:57;;;;;;;11.70;5.65;;;;;;;;;;5044013;28;20028;-77
2021/08/16 09:58:22;;;;;;;12.23;5.50;;;;;;;;;;5051616;28;20417;-74
2021/08/16 10:00:48;;;;;;;11.43;5.63;;;;;;;;;;5043349;28;20032;-77
2021/08/16 10:03:14;;;;;;;14.07;5.40;;;;;;;;;;5049523;28;20056;-74
2021/08/16 10:05:41;;;;;;;12.98;5.93;;;;;;;;;;5050259;28;20421;-74
2021/08/16 10:08:07;;;;;;;16.27;5.38;;;;;;;;;;5050673;28;20078;-74
2021/08/16 10:10:36;;;;;;;9.95;5.20;;;;;;;;;;5050532;28;20025;-74
2021/08/16 10:13:03;;;;;;;11.15;5.20;;;;;;;;;;5050462;28;20158;-76
2021/08/16 10:15:30;;;;;;;14.57;5.03;;;;;;;;;;5050041;28;20036;-75
2021/08/16 10:17:55;;;;;;;12.38;4.97;;;;;;;;;;5050412;28;20102;-74
2021/08/16 10:20:21;;;;;;;10.40;4.68;;;;;;;;;;5050163;28;20071;-75
2021/08/16 10:22:46;;;;;;;12.10;4.85;;;;;;;;;;5049934;28;20381;-74
2021/08/16 10:25:13;;;;;;;11.27;4.43;;;;;;;;;;5049900;28;20017;-74
2021/08/16 10:27:38;;;;;;;14.98;5.63;;;;;;;;;;5032241;28;20051;-76
2021/08/16 10:30:04;;;;;;;12.48;4.63;;;;;;;;;;5050418;28;20465;-74
2021/08/16 10:32:30;;;;;;;16.60;5.45;;;;;;;;;;5049358;28;20106;-75
2021/08/16 10:35:04;;;;;;;10.18;4.90;;;;;;;;;;5044587;28;20388;-74
2021/08/16 10:37:35;;;;;;;10.00;4.68;;;;;;;;;;5049480;28;20040;-75
2021/08/16 10:40:00;;;;;;;10.20;4.57;;;;;;;;;;5049294;28;20024;-74
2021/08/16 10:42:37;;;;;;;11.38;4.47;;;;;;;;;;5050342;28;20485;-74
2021/08/16 10:45:03;;;;;;;11.48;5.07;;;;;;;;;;5050190;28;20437;-74
2021/08/16 10:47:30;;;;;;;16.45;4.63;;;;;;;;;;5049337;28;20041;-74
2021/08/16 10:50:12;;;;;;;12.98;5.13;;;;;;;;;;5048447;28;20082;-75
2021/08/16 10:52:38;;;;;;;13.23;4.80;;;;;;;;;;5049601;28;20029;-74
2021/08/16 10:55:17;;;;;;;13.18;4.50;;;;;;;;;;5049013;28;20408;-74
2021/08/16 10:57:43;;;;;;;11.98;4.45;;;;;;;;;;5030934;28;20037;-74
2021/08/16 11:00:09;;;;;;;9.00;3.80;;;;;;;;;;5038764;28;20055;-74
2021/08/16 11:02:36;;;;;;;8.82;3.42;;;;;;;;;;5050066;28;20037;-74
2021/08/16 11:05:02;;;;;;;9.73;4.57;;;;;;;;;;5045462;28;20028;-77
2021/08/16 11:07:28;;;;;;;9.32;4.03;;;;;;;;;;5045472;28;20021;-74
2021/08/16 11:09:58;;;;;;;14.73;3.47;;;;;;;;;;5049430;28;20020;-75
2021/08/16 11:12:31;;;;;;;8.40;3.83;;;;;;;;;;5050289;28;20075;-76
2021/08/16 11:14:56;;;;;;;10.32;3.35;;;;;;;;;;5041749;28;20047;-74
2021/08/16 11:17:29;;;;;;;11.60;3.83;;;;;;;;;;5049215;28;20373;-75
2021/08/16 11:19:57;;;;;;;10.38;4.05;;;;;;;;;;5049277;28;20036;-74
2021/08/16 11:22:22;;;;;;;10.55;3.50;;;;;;;;;;5049577;28;20518;-74
2021/08/16 11:24:48;;;;;;;11.07;3.47;;;;;;;;;;5048679;28;20109;-74
2021/08/16 11:27:26;;;;;;;8.55;3.40;;;;;;;;;;5036395;28;20029;-75
2021/08/16 11:29:58;;;;;;;9.90;3.90;;;;;;;;;;5044306;28;20029;-74
2021/08/16 11:32:24;;;;;;;7.97;3.25;;;;;;;;;;5048930;28;20052;-75
2021/08/16 11:34:51;;;;;;;8.20;3.35;;;;;;;;;;5049039;28;20102;-75
2021/08/16 11:37:16;;;;;;;8.63;3.45;;;;;;;;;;5048977;28;20061;-75
2021/08/16 11:39:45;;;;;;;11.50;3.65;;;;;;;;;;5031241;28;20053;-75
2021/08/16 11:42:11;;;;;;;11.32;4.20;;;;;;;;;;5050103;28;20071;-75
2021/08/16 11:44:37;;;;;;;11.20;3.47;;;;;;;;;;5049218;28;20024;-77
2021/08/16 11:47:04;;;;;;;9.40;3.65;;;;;;;;;;5042560;28;20443;-76
2021/08/16 11:49:32;;;;;;;12.02;4.70;;;;;;;;;;5022725;28;20381;-75
2021/08/16 11:51:58;;;;;;;9.10;3.70;;;;;;;;;;5047784;28;20078;-76
2021/08/16 11:54:25;;;;;;;8.27;3.85;;;;;;;;;;5048541;28;20029;-77
2021/08/16 11:56:52;;;;;;;11.02;3.80;;;;;;;;;;5049398;28;20087;-76
2021/08/16 11:59:20;;;;;;;9.50;3.60;;;;;;;;;;5049138;28;20025;-76
2021/08/16 12:01:46;;;;;;;7.25;3.17;;;;;;;;;;5029073;28;20045;-75
2021/08/16 12:04:12;;;;;;;10.45;3.78;;;;;;;;;;5047265;28;20033;-76
2021/08/16 12:06:37;;;;;;;11.30;3.72;;;;;;;;;;5031183;28;20098;-75
2021/08/16 12:09:06;;;;;;;12.05;3.63;;;;;;;;;;5048766;28;20021;-74
2021/08/16 12:11:31;;;;;;;10.93;3.78;;;;;;;;;;5048614;28;20033;-74
2021/08/16 12:13:57;;;;;;;11.82;3.25;;;;;;;;;;5048699;28;20013;-75
2021/08/16 12:16:28;;;;;;;6.47;3.53;;;;;;;;;;5049309;28;20054;-74
2021/08/16 12:18:57;;;;;;;7.18;2.70;;;;;;;;;;5049121;28;20112;-76
2021/08/16 12:21:22;;;;;;;9.52;3.88;;;;;;;;;;5048351;28;20072;-75
2021/08/16 12:23:55;;;;;;;8.95;3.33;;;;;;;;;;5049454;28;20369;-75
2021/08/16 12:26:46;;;;;;;10.38;3.42;;;;;;;;;;5052651;28;20484;-75
2021/08/16 12:29:19;;;;;;;9.40;3.78;;;;;;;;;;5047503;28;20036;-75
2021/08/16 12:31:44;;;;;;;10.15;3.67;;;;;;;;;;5052048;28;20057;-75
2021/08/16 12:34:12;;;;;;;9.88;3.70;;;;;;;;;;5052235;28;20021;-75
2021/08/16 12:36:40;;;;;;;9.52;3.45;;;;;;;;;;5051839;28;20032;-77
2021/08/16 12:39:08;;;;;;;6.30;2.97;;;;;;;;;;5051699;28;20028;-76
2021/08/16 12:41:34;;;;;;;9.38;3.35;;;;;;;;;;5052752;28;20047;-74
2021/08/16 12:44:00;;;;;;;7.38;3.35;;;;;;;;;;5051647;28;20389;-75
2021/08/16 12:46:35;;;;;;;11.05;4.10;;;;;;;;;;5051889;28;20059;-74
2021/08/16 12:49:02;;;;;;;8.05;3.60;;;;;;;;;;5051237;28;20025;-75
2021/08/16 12:51:28;;;;;;;8.73;3.10;;;;;;;;;;5051589;28;20033;-76
2021/08/16 12:54:00;;;;;;;8.30;3.22;;;;;;;;;;5052460;28;20023;-75
2021/08/16 12:56:26;;;;;;;8.57;3.63;;;;;;;;;;5051964;28;20037;-74
2021/08/16 12:58:52;;;;;;;7.47;3.20;;;;;;;;;;5034045;28;20056;-75
2021/08/16 13:01:18;;;;;;;10.65;3.40;;;;;;;;;;5052625;28;20469;-74
2021/08/16 13:03:44;;;;;;;12.52;3.85;;;;;;;;;;5052335;28;20039;-75
2021/08/16 13:06:09;;;;;;;12.73;3.75;;;;;;;;;;5051722;28;20032;-77
2021/08/16 13:08:34;;;;;;;10.10;3.42;;;;;;;;;;5052092;28;20023;-77
2021/08/16 13:11:00;;;;;;;9.45;3.30;;;;;;;;;;5051947;28;20436;-77
2021/08/16 13:13:26;;;;;;;11.18;3.83;;;;;;;;;;5052055;28;20036;-79
2021/08/16 13:15:51;;;;;;;7.68;3.38;;;;;;;;;;5034167;28;20024;-76
2021/08/16 13:18:16;;;;;;;8.38;3.22;;;;;;;;;;5052027;28;20613;-76
2021/08/16 13:20:41;;;;;;;8.23;3.67;;;;;;;;;;5032387;28;20036;-76
2021/08/16 13:23:09;;;;;;;6.68;3.40;;;;;;;;;;5051181;28;20021;-77
2021/08/16 13:25:34;;;;;;;9.45;3.67;;;;;;;;;;5051761;28;20025;-76
2021/08/16 13:28:00;;;;;;;9.13;3.38;;;;;;;;;;5052142;28;20035;-76
2021/08/16 13:30:25;;;;;;;11.82;4.07;;;;;;;;;;5051132;28;20548;-76
2021/08/16 13:32:50;;;;;;;6.70;3.75;;;;;;;;;;5050706;28;20033;-78
2021/08/16 13:35:15;;;;;;;9.13;3.33;;;;;;;;;;5050109;28;20063;-76
2021/08/16 13:37:41;;;;;;;9.13;3.42;;;;;;;;;;5049102;28;20032;-76
2021/08/16 13:40:06;;;;;;;8.02;3.47;;;;;;;;;;5043637;28;20897;-76
2021/08/16 13:42:36;;;;;;;9.93;3.58;;;;;;;;;;5044437;28;20166;-78
2021/08/16 13:45:02;;;;;;;11.13;3.45;;;;;;;;;;5047705;28;20069;-76
2021/08/16 13:47:27;;;;;;;12.95;3.28;;;;;;;;;;5050762;28;20029;-76
2021/08/16 13:49:52;;;;;;;11.60;3.05;;;;;;;;;;5033174;28;20179;-76
2021/08/16 13:52:17;;;;;;;13.65;3.65;;;;;;;;;;5049723;28;20025;-76
2021/08/16 13:54:43;;;;;;;8.68;3.30;;;;;;;;;;5051552;28;20029;-76
2021/08/16 13:57:08;;;;;;;8.98;3.38;;;;;;;;;;5050674;28;20483;-75
2021/08/16 13:59:33;;;;;;;7.82;3.15;;;;;;;;;;5049819;28;20020;-76
2021/08/16 14:01:59;;;;;;;8.57;3.03;;;;;;;;;;5045052;28;20045;-76
2021/08/16 14:04:24;;;;;;;9.13;3.03;;;;;;;;;;5044195;28;20033;-76
2021/08/16 14:06:51;;;;;;;8.05;3.30;;;;;;;;;;5050529;28;20035;-76
2021/08/16 14:09:17;;;;;;;9.65;3.75;;;;;;;;;;5047827;28;20051;-77
2021/08/16 14:11:44;;;;;;;12.55;3.35;;;;;;;;;;5050593;28;20807;-76
2021/08/16 14:14:09;;;;;;;6.57;2.60;;;;;;;;;;5048435;28;20048;-75
2021/08/16 14:16:34;;;;;;;7.45;3.60;;;;;;;;;;5049344;28;20059;-77
2021/08/16 14:19:00;;;;;;;7.72;3.13;;;;;;;;;;5049704;28;20542;-77
2021/08/16 14:21:25;;;;;;;9.23;2.75;;;;;;;;;;5045798;28;20033;-76
2021/08/16 14:23:50;;;;;;;8.18;2.92;;;;;;;;;;5046480;28;20037;-76